sensor_id;sensor_type;location;lat;lon;timestamp;P1;durP1;ratioP1;P2;durP2;ratioP2
38557;SDS011;24333;42.626;23.308;2023-06-14T00:00:49;10.43;;;5.40;;
38557;SDS011;24333;42.626;23.308;2023-06-14T00:03:14;11.27;;;5.50;;
38557;SDS011;24333;42.626;23.308;2023-06-14T00:05:42;11.88;;;6.03;;
38557;SDS011;24333;42.626;23.308;2023-06-14T00:08:09;9.15;;;4.70;;
38557;SDS011;24333;42.626;23.308;2023-06-14T00:10:34;11.18;;;6.03;;
38557;SDS011;24333;42.626;23.308;2023-06-14T00:13:01;11.05;;;5.20;;
38557;SDS011;24333;42.626;23.308;2023-06-14T00:15:26;10.13;;;4.97;;
38557;SDS011;24333;42.626;23.308;2023-06-14T00:17:51;8.52;;;4.18;;
38557;SDS011;24333;42.626;23.308;2023-06-14T00:20:17;8.00;;;4.63;;
38557;SDS011;24333;42.626;23.308;2023-06-14T00:22:42;10.63;;;4.90;;
38557;SDS011;24333;42.626;23.308;2023-06-14T00:25:07;8.18;;;4.88;;
38557;SDS011;24333;42.626;23.308;2023-06-14T00:27:33;11.85;;;5.43;;
38557;SDS011;24333;42.626;23.308;2023-06-14T00:29:58;7.40;;;4.43;;
38557;SDS011;24333;42.626;23.308;2023-06-14T00:32:23;11.43;;;4.75;;
38557;SDS011;24333;42.626;23.308;2023-06-14T00:34:50;9.30;;;4.95;;
38557;SDS011;24333;42.626;23.308;2023-06-14T00:37:16;11.20;;;4.22;;
38557;SDS011;24333;42.626;23.308;2023-06-14T00:39:41;8.02;;;4.85;;
38557;SDS011;24333;42.626;23.308;2023-06-14T00:42:06;8.70;;;4.50;;
38557;SDS011;24333;42.626;23.308;2023-06-14T00:44:32;8.95;;;4.78;;
38557;SDS011;24333;42.626;23.308;2023-06-14T00:46:57;9.02;;;4.93;;
38557;SDS011;24333;42.626;23.308;2023-06-14T00:49:22;9.77;;;5.57;;
38557;SDS011;24333;42.626;23.308;2023-06-14T00:51:48;11.05;;;4.85;;
38557;SDS011;24333;42.626;23.308;2023-06-14T00:54:13;12.02;;;5.05;;
38557;SDS011;24333;42.626;23.308;2023-06-14T00:56:39;8.25;;;4.25;;
38557;SDS011;24333;42.626;23.308;2023-06-14T00:59:05;7.00;;;4.20;;
38557;SDS011;24333;42.626;23.308;2023-06-14T01:01:31;7.38;;;4.35;;
38557;SDS011;24333;42.626;23.308;2023-06-14T01:03:59;7.97;;;4.43;;
38557;SDS011;24333;42.626;23.308;2023-06-14T01:11:47;8.60;;;4.40;;
38557;SDS011;24333;42.626;23.308;2023-06-14T01:14:15;6.00;;;3.67;;
38557;SDS011;24333;42.626;23.308;2023-06-14T01:16:41;8.07;;;4.15;;
38557;SDS011;24333;42.626;23.308;2023-06-14T01:19:07;9.77;;;4.82;;
38557;SDS011;24333;42.626;23.308;2023-06-14T01:21:37;7.10;;;4.30;;
38557;SDS011;24333;42.626;23.308;2023-06-14T01:24:06;7.68;;;4.13;;
38557;SDS011;24333;42.626;23.308;2023-06-14T01:26:32;11.65;;;4.82;;
38557;SDS011;24333;42.626;23.308;2023-06-14T01:28:57;10.05;;;4.30;;
38557;SDS011;24333;42.626;23.308;2023-06-14T01:31:23;8.10;;;4.13;;
38557;SDS011;24333;42.626;23.308;2023-06-14T01:33:49;10.50;;;4.55;;
38557;SDS011;24333;42.626;23.308;2023-06-14T01:36:16;6.97;;;4.25;;
38557;SDS011;24333;42.626;23.308;2023-06-14T01:38:41;10.02;;;5.05;;
38557;SDS011;24333;42.626;23.308;2023-06-14T01:41:08;7.22;;;3.97;;
38557;SDS011;24333;42.626;23.308;2023-06-14T01:43:34;7.82;;;4.43;;
38557;SDS011;24333;42.626;23.308;2023-06-14T01:45:59;11.35;;;4.28;;
38557;SDS011;24333;42.626;23.308;2023-06-14T01:48:25;12.18;;;4.68;;
38557;SDS011;24333;42.626;23.308;2023-06-14T01:50:51;9.55;;;4.25;;
38557;SDS011;24333;42.626;23.308;2023-06-14T01:53:17;12.93;;;4.10;;
38557;SDS011;24333;42.626;23.308;2023-06-14T02:08:51;9.27;;;5.15;;
38557;SDS011;24333;42.626;23.308;2023-06-14T02:11:16;9.15;;;5.13;;
38557;SDS011;24333;42.626;23.308;2023-06-14T02:13:41;8.15;;;4.50;;
38557;SDS011;24333;42.626;23.308;2023-06-14T02:16:07;10.48;;;4.53;;
38557;SDS011;24333;42.626;23.308;2023-06-14T02:18:33;10.07;;;4.97;;
38557;SDS011;24333;42.626;23.308;2023-06-14T02:21:04;8.07;;;4.38;;
38557;SDS011;24333;42.626;23.308;2023-06-14T02:24:10;12.18;;;4.80;;
38557;SDS011;24333;42.626;23.308;2023-06-14T02:26:36;10.40;;;4.18;;
38557;SDS011;24333;42.626;23.308;2023-06-14T02:29:03;8.13;;;4.32;;
38557;SDS011;24333;42.626;23.308;2023-06-14T02:31:30;11.02;;;5.07;;
38557;SDS011;24333;42.626;23.308;2023-06-14T02:33:55;9.18;;;4.93;;
38557;SDS011;24333;42.626;23.308;2023-06-14T02:36:21;8.70;;;4.78;;
38557;SDS011;24333;42.626;23.308;2023-06-14T02:38:46;10.50;;;5.13;;
38557;SDS011;24333;42.626;23.308;2023-06-14T02:41:12;9.32;;;4.50;;
38557;SDS011;24333;42.626;23.308;2023-06-14T02:43:37;16.43;;;6.37;;
38557;SDS011;24333;42.626;23.308;2023-06-14T02:46:03;14.20;;;6.05;;
38557;SDS011;24333;42.626;23.308;2023-06-14T02:48:28;9.93;;;5.30;;
38557;SDS011;24333;42.626;23.308;2023-06-14T02:50:54;15.85;;;5.13;;
38557;SDS011;24333;42.626;23.308;2023-06-14T02:53:19;8.87;;;4.80;;
38557;SDS011;24333;42.626;23.308;2023-06-14T02:55:45;11.15;;;5.40;;
38557;SDS011;24333;42.626;23.308;2023-06-14T02:58:11;14.40;;;5.07;;
38557;SDS011;24333;42.626;23.308;2023-06-14T03:00:38;8.40;;;4.40;;
38557;SDS011;24333;42.626;23.308;2023-06-14T03:03:03;13.07;;;5.10;;
38557;SDS011;24333;42.626;23.308;2023-06-14T03:05:29;9.38;;;5.20;;
38557;SDS011;24333;42.626;23.308;2023-06-14T03:07:55;13.40;;;4.88;;
38557;SDS011;24333;42.626;23.308;2023-06-14T03:10:20;7.60;;;4.43;;
38557;SDS011;24333;42.626;23.308;2023-06-14T03:12:47;9.15;;;4.63;;
38557;SDS011;24333;42.626;23.308;2023-06-14T03:15:12;9.50;;;4.43;;
38557;SDS011;24333;42.626;23.308;2023-06-14T03:17:38;8.27;;;4.40;;
38557;SDS011;24333;42.626;23.308;2023-06-14T03:20:04;10.50;;;4.28;;
38557;SDS011;24333;42.626;23.308;2023-06-14T03:22:30;8.73;;;4.53;;
38557;SDS011;24333;42.626;23.308;2023-06-14T03:24:57;9.45;;;4.07;;
38557;SDS011;24333;42.626;23.308;2023-06-14T03:27:24;11.00;;;4.93;;
38557;SDS011;24333;42.626;23.308;2023-06-14T03:29:49;10.68;;;4.43;;
38557;SDS011;24333;42.626;23.308;2023-06-14T03:32:14;7.63;;;4.47;;
38557;SDS011;24333;42.626;23.308;2023-06-14T03:34:40;9.02;;;4.30;;
38557;SDS011;24333;42.626;23.308;2023-06-14T03:37:06;8.73;;;4.78;;
38557;SDS011;24333;42.626;23.308;2023-06-14T03:39:33;8.13;;;4.45;;
38557;SDS011;24333;42.626;23.308;2023-06-14T03:41:58;10.52;;;4.88;;
38557;SDS011;24333;42.626;23.308;2023-06-14T03:44:26;10.80;;;4.95;;
38557;SDS011;24333;42.626;23.308;2023-06-14T03:46:51;10.68;;;5.13;;
38557;SDS011;24333;42.626;23.308;2023-06-14T03:49:16;10.15;;;4.30;;
38557;SDS011;24333;42.626;23.308;2023-06-14T03:51:42;8.55;;;4.68;;
38557;SDS011;24333;42.626;23.308;2023-06-14T03:54:07;9.13;;;4.80;;
38557;SDS011;24333;42.626;23.308;2023-06-14T03:56:33;11.50;;;5.95;;
38557;SDS011;24333;42.626;23.308;2023-06-14T04:01:49;12.95;;;6.20;;
38557;SDS011;24333;42.626;23.308;2023-06-14T04:04:15;14.70;;;7.00;;
38557;SDS011;24333;42.626;23.308;2023-06-14T06:40:22;16.25;;;8.10;;
38557;SDS011;24333;42.626;23.308;2023-06-14T06:51:05;17.35;;;7.78;;
38557;SDS011;24333;42.626;23.308;2023-06-14T06:53:31;20.67;;;8.55;;
38557;SDS011;24333;42.626;23.308;2023-06-14T06:55:57;19.83;;;9.00;;
38557;SDS011;24333;42.626;23.308;2023-06-14T06:58:22;14.35;;;7.60;;
38557;SDS011;24333;42.626;23.308;2023-06-14T07:00:48;16.38;;;8.20;;
38557;SDS011;24333;42.626;23.308;2023-06-14T07:05:57;19.02;;;8.55;;
38557;SDS011;24333;42.626;23.308;2023-06-14T07:08:23;16.58;;;8.45;;
38557;SDS011;24333;42.626;23.308;2023-06-14T07:10:48;18.13;;;8.43;;
38557;SDS011;24333;42.626;23.308;2023-06-14T07:52:46;18.27;;;9.20;;
38557;SDS011;24333;42.626;23.308;2023-06-14T07:55:13;17.58;;;8.50;;
38557;SDS011;24333;42.626;23.308;2023-06-14T07:57:39;18.65;;;8.75;;
38557;SDS011;24333;42.626;23.308;2023-06-14T08:00:04;18.77;;;8.27;;
38557;SDS011;24333;42.626;23.308;2023-06-14T08:02:33;15.82;;;7.68;;
38557;SDS011;24333;42.626;23.308;2023-06-14T08:07:46;14.25;;;7.88;;
38557;SDS011;24333;42.626;23.308;2023-06-14T08:10:11;16.60;;;8.30;;
38557;SDS011;24333;42.626;23.308;2023-06-14T08:12:36;16.50;;;8.27;;
38557;SDS011;24333;42.626;23.308;2023-06-14T08:15:02;18.47;;;8.67;;
38557;SDS011;24333;42.626;23.308;2023-06-14T08:48:28;15.73;;;8.27;;
38557;SDS011;24333;42.626;23.308;2023-06-14T08:53:41;20.35;;;7.60;;
38557;SDS011;24333;42.626;23.308;2023-06-14T08:56:08;13.95;;;7.13;;
38557;SDS011;24333;42.626;23.308;2023-06-14T08:58:39;13.88;;;7.88;;
38557;SDS011;24333;42.626;23.308;2023-06-14T09:01:11;13.80;;;6.90;;
38557;SDS011;24333;42.626;23.308;2023-06-14T09:03:45;15.13;;;7.80;;
38557;SDS011;24333;42.626;23.308;2023-06-14T09:06:15;16.08;;;7.80;;
38557;SDS011;24333;42.626;23.308;2023-06-14T09:08:49;15.65;;;8.00;;
38557;SDS011;24333;42.626;23.308;2023-06-14T09:11:18;17.30;;;7.47;;
38557;SDS011;24333;42.626;23.308;2023-06-14T09:13:58;15.85;;;7.63;;
38557;SDS011;24333;42.626;23.308;2023-06-14T09:16:24;15.10;;;7.13;;
38557;SDS011;24333;42.626;23.308;2023-06-14T09:18:50;14.85;;;7.38;;
38557;SDS011;24333;42.626;23.308;2023-06-14T13:05:56;9.50;;;5.95;;
38557;SDS011;24333;42.626;23.308;2023-06-14T13:08:31;11.43;;;6.22;;
38557;SDS011;24333;42.626;23.308;2023-06-14T13:11:07;10.65;;;5.47;;
38557;SDS011;24333;42.626;23.308;2023-06-14T13:13:53;12.15;;;6.10;;
38557;SDS011;24333;42.626;23.308;2023-06-14T16:32:36;14.13;;;6.63;;
38557;SDS011;24333;42.626;23.308;2023-06-14T17:00:53;11.90;;;6.68;;
38557;SDS011;24333;42.626;23.308;2023-06-14T17:03:20;10.18;;;6.05;;
38557;SDS011;24333;42.626;23.308;2023-06-14T17:34:11;11.48;;;6.32;;
38557;SDS011;24333;42.626;23.308;2023-06-14T21:36:19;12.93;;;6.30;;
38557;SDS011;24333;42.626;23.308;2023-06-14T21:38:45;17.02;;;6.90;;
38557;SDS011;24333;42.626;23.308;2023-06-14T21:41:10;15.50;;;6.95;;
38557;SDS011;24333;42.626;23.308;2023-06-14T21:43:37;20.73;;;7.13;;
38557;SDS011;24333;42.626;23.308;2023-06-14T21:46:02;14.48;;;7.18;;
38557;SDS011;24333;42.626;23.308;2023-06-14T23:47:11;10.23;;;5.40;;
